Search for airport 
image banner adimage banner adimage banner ad
image banner ad

PN44 - Merck/Upper Gwynedd

Located in North Wales, United States

ICAO - PN44, IATA -

Data provided by Airmate  

General information

Coordinates: N40°12'57" W75°16'49"
Elevation is 355 feet MSL.
Magnetic variation is -12° East
View others Airports in Pennsylvania

Operational data

Special qualification required
Current time UTC:
Current local time:
Weather at : KLOM - Wings Field ( 9 km )
METAR: KLOM 091315Z AUTO 24003KT 10SM CLR 10/04 A3011 RMK AO2 T01030045
View NOTAMs / SUP AIP / TFR affecting this airport [VIEW]
Communications frequencies: [VIEW]

Runways:

Airport contact information

Address: North Wales United States

Satellite view of PN44